sensor_id;sensor_type;location;lat;lon;timestamp;P1;durP1;ratioP1;P2;durP2;ratioP2
65053;SDS011;51639;47.828;35.038;2022-11-20T00:14:26;8.30;;;5.37;;
65053;SDS011;51639;47.828;35.038;2022-11-20T00:29:28;8.20;;;5.60;;
65053;SDS011;51639;47.828;35.038;2022-11-20T00:44:30;8.60;;;5.73;;
65053;SDS011;51639;47.828;35.038;2022-11-20T00:59:32;10.07;;;5.93;;
65053;SDS011;51639;47.828;35.038;2022-11-20T01:14:33;7.73;;;4.80;;
65053;SDS011;51639;47.828;35.038;2022-11-20T01:29:35;6.57;;;4.90;;
65053;SDS011;51639;47.828;35.038;2022-11-20T01:44:57;8.63;;;5.67;;
65053;SDS011;51639;47.828;35.038;2022-11-20T02:00:04;8.03;;;5.27;;
65053;SDS011;51639;47.828;35.038;2022-11-20T02:15:10;8.03;;;5.13;;
65053;SDS011;51639;47.828;35.038;2022-11-20T02:30:12;12.67;;;7.10;;
65053;SDS011;51639;47.828;35.038;2022-11-20T02:45:14;17.23;;;7.47;;
65053;SDS011;51639;47.828;35.038;2022-11-20T03:00:16;11.47;;;6.73;;
65053;SDS011;51639;47.828;35.038;2022-11-20T03:15:18;12.13;;;6.10;;
65053;SDS011;51639;47.828;35.038;2022-11-20T03:30:20;12.40;;;7.03;;
65053;SDS011;51639;47.828;35.038;2022-11-20T03:45:30;11.13;;;6.33;;
65053;SDS011;51639;47.828;35.038;2022-11-20T04:00:32;11.77;;;5.67;;
65053;SDS011;51639;47.828;35.038;2022-11-20T04:15:34;10.63;;;6.40;;
65053;SDS011;51639;47.828;35.038;2022-11-20T04:30:38;17.07;;;9.17;;
65053;SDS011;51639;47.828;35.038;2022-11-20T04:45:40;16.60;;;8.33;;
65053;SDS011;51639;47.828;35.038;2022-11-20T05:00:42;19.97;;;10.67;;
65053;SDS011;51639;47.828;35.038;2022-11-20T05:15:44;19.40;;;10.07;;
65053;SDS011;51639;47.828;35.038;2022-11-20T05:30:46;17.63;;;8.40;;
65053;SDS011;51639;47.828;35.038;2022-11-20T05:45:52;17.57;;;9.67;;
65053;SDS011;51639;47.828;35.038;2022-11-20T06:01:03;15.07;;;8.97;;
65053;SDS011;51639;47.828;35.038;2022-11-20T06:16:17;28.40;;;12.27;;
65053;SDS011;51639;47.828;35.038;2022-11-20T06:31:21;22.17;;;10.63;;
65053;SDS011;51639;47.828;35.038;2022-11-20T06:46:25;20.67;;;11.03;;
65053;SDS011;51639;47.828;35.038;2022-11-20T07:01:27;18.40;;;10.60;;
65053;SDS011;51639;47.828;35.038;2022-11-20T07:16:29;20.50;;;10.27;;
65053;SDS011;51639;47.828;35.038;2022-11-20T07:31:31;19.53;;;10.70;;
65053;SDS011;51639;47.828;35.038;2022-11-20T07:46:33;18.80;;;9.80;;
65053;SDS011;51639;47.828;35.038;2022-11-20T08:01:35;19.43;;;10.60;;
65053;SDS011;51639;47.828;35.038;2022-11-20T08:16:40;20.63;;;9.97;;
65053;SDS011;51639;47.828;35.038;2022-11-20T08:31:43;24.10;;;10.83;;
65053;SDS011;51639;47.828;35.038;2022-11-20T08:46:46;23.97;;;10.83;;
65053;SDS011;51639;47.828;35.038;2022-11-20T09:01:48;29.00;;;13.17;;
65053;SDS011;51639;47.828;35.038;2022-11-20T09:16:50;27.53;;;12.40;;
65053;SDS011;51639;47.828;35.038;2022-11-20T09:31:58;29.57;;;12.30;;
65053;SDS011;51639;47.828;35.038;2022-11-20T09:47:10;23.73;;;10.47;;
65053;SDS011;51639;47.828;35.038;2022-11-20T10:17:36;22.10;;;9.63;;
65053;SDS011;51639;47.828;35.038;2022-11-20T10:32:48;23.00;;;11.90;;
65053;SDS011;51639;47.828;35.038;2022-11-20T11:03:30;17.47;;;9.07;;
65053;SDS011;51639;47.828;35.038;2022-11-20T11:18:33;14.23;;;7.17;;
65053;SDS011;51639;47.828;35.038;2022-11-20T11:33:36;15.90;;;6.93;;
65053;SDS011;51639;47.828;35.038;2022-11-20T11:48:38;17.47;;;7.73;;
65053;SDS011;51639;47.828;35.038;2022-11-20T12:03:40;18.80;;;8.90;;
65053;SDS011;51639;47.828;35.038;2022-11-20T12:18:49;23.07;;;10.40;;
65053;SDS011;51639;47.828;35.038;2022-11-20T12:49:33;22.57;;;9.27;;
65053;SDS011;51639;47.828;35.038;2022-11-20T13:04:59;26.10;;;10.90;;
65053;SDS011;51639;47.828;35.038;2022-11-20T13:20:22;24.43;;;9.63;;
65053;SDS011;51639;47.828;35.038;2022-11-20T13:35:34;25.33;;;10.37;;
65053;SDS011;51639;47.828;35.038;2022-11-20T13:51:02;26.10;;;8.83;;
65053;SDS011;51639;47.828;35.038;2022-11-20T14:06:11;26.13;;;10.10;;
65053;SDS011;51639;47.828;35.038;2022-11-20T14:21:27;43.27;;;10.53;;
65053;SDS011;51639;47.828;35.038;2022-11-20T14:36:31;22.40;;;10.30;;
65053;SDS011;51639;47.828;35.038;2022-11-20T14:51:39;38.63;;;11.97;;
65053;SDS011;51639;47.828;35.038;2022-11-20T15:06:53;113.93;;;15.23;;
65053;SDS011;51639;47.828;35.038;2022-11-20T15:21:57;84.40;;;13.87;;
65053;SDS011;51639;47.828;35.038;2022-11-20T15:36:59;175.03;;;17.07;;
65053;SDS011;51639;47.828;35.038;2022-11-20T15:52:01;322.53;;;23.27;;
65053;SDS011;51639;47.828;35.038;2022-11-20T16:07:02;465.10;;;27.70;;
65053;SDS011;51639;47.828;35.038;2022-11-20T16:22:04;181.37;;;18.17;;
65053;SDS011;51639;47.828;35.038;2022-11-20T16:37:06;327.37;;;23.67;;
65053;SDS011;51639;47.828;35.038;2022-11-20T16:52:09;510.63;;;30.60;;
65053;SDS011;51639;47.828;35.038;2022-11-20T17:07:10;382.80;;;25.17;;
65053;SDS011;51639;47.828;35.038;2022-11-20T17:22:12;282.43;;;21.40;;
65053;SDS011;51639;47.828;35.038;2022-11-20T17:37:14;240.77;;;19.67;;
65053;SDS011;51639;47.828;35.038;2022-11-20T17:52:17;270.47;;;20.07;;
65053;SDS011;51639;47.828;35.038;2022-11-20T18:07:19;222.70;;;20.50;;
65053;SDS011;51639;47.828;35.038;2022-11-20T18:22:21;306.07;;;21.77;;
65053;SDS011;51639;47.828;35.038;2022-11-20T18:37:23;49.97;;;15.63;;
65053;SDS011;51639;47.828;35.038;2022-11-20T18:52:27;34.27;;;12.40;;
65053;SDS011;51639;47.828;35.038;2022-11-20T19:07:30;34.63;;;13.27;;
65053;SDS011;51639;47.828;35.038;2022-11-20T19:22:32;19.87;;;10.90;;
65053;SDS011;51639;47.828;35.038;2022-11-20T19:37:34;23.73;;;10.30;;
65053;SDS011;51639;47.828;35.038;2022-11-20T19:52:36;24.00;;;10.43;;
65053;SDS011;51639;47.828;35.038;2022-11-20T20:07:38;30.97;;;11.37;;
65053;SDS011;51639;47.828;35.038;2022-11-20T20:22:40;23.10;;;9.23;;
65053;SDS011;51639;47.828;35.038;2022-11-20T20:37:42;21.83;;;10.67;;
65053;SDS011;51639;47.828;35.038;2022-11-20T20:52:44;28.73;;;9.00;;
65053;SDS011;51639;47.828;35.038;2022-11-20T21:07:46;27.27;;;11.50;;
65053;SDS011;51639;47.828;35.038;2022-11-20T21:23:21;22.03;;;9.70;;
65053;SDS011;51639;47.828;35.038;2022-11-20T21:38:24;27.33;;;9.50;;
65053;SDS011;51639;47.828;35.038;2022-11-20T21:53:26;20.83;;;8.50;;
65053;SDS011;51639;47.828;35.038;2022-11-20T22:08:28;22.93;;;9.80;;
65053;SDS011;51639;47.828;35.038;2022-11-20T22:23:30;18.13;;;9.13;;
65053;SDS011;51639;47.828;35.038;2022-11-20T22:38:32;20.57;;;9.17;;
65053;SDS011;51639;47.828;35.038;2022-11-20T22:53:40;21.73;;;8.87;;
65053;SDS011;51639;47.828;35.038;2022-11-20T23:08:42;20.87;;;8.40;;
65053;SDS011;51639;47.828;35.038;2022-11-20T23:23:47;23.77;;;7.50;;
65053;SDS011;51639;47.828;35.038;2022-11-20T23:38:54;16.23;;;8.17;;
65053;SDS011;51639;47.828;35.038;2022-11-20T23:53:56;21.97;;;7.50;;
